This is the latest recevied weather packets stored in our database for station/object NUUKSIO. If no packets are shown the sender has not sent any weather packets the latest 1 day(s).
| Time | Temp. | Humidity | Pressure | Rain* | Wind** | Luminosity | Snow |
|---|---|---|---|---|---|---|---|
| 1778014039 | 1.67° C | 75% | 1008 hPa | 0 mm | 1.79 m/s, 257° | - | - |
| 1778012839 | 2.22° C | 73% | 1007.8 hPa | 0 mm | 1.79 m/s, 256° | - | - |
| 1778011639 | 2.22° C | 71% | 1007.6 hPa | 0 mm | 2.24 m/s, 252° | - | - |
| 1778010438 | 2.78° C | 69% | 1007.5 hPa | 0 mm | 2.24 m/s, 248° | - | - |
| 1778009239 | 3.33° C | 67% | 1007.4 hPa | 0 mm | 2.24 m/s, 255° | - | - |
| 1778008038 | 3.89° C | 65% | 1007.1 hPa | 0 mm | 2.68 m/s, 248° | - | - |
| 1778006838 | 3.89° C | 63% | 1006.9 hPa | 0 mm | 2.68 m/s, 240° | - | - |
| 1778005638 | 5° C | 60% | 1006.7 hPa | 0 mm | 2.68 m/s, 242° | - | - |
| 1778004438 | 5.56° C | 57% | 1006.4 hPa | 0 mm | 3.13 m/s, 243° | - | - |
| 1778003238 | 6.11° C | 54% | 1006.2 hPa | 0 mm | 2.68 m/s, 239° | - | - |
| 1778002037 | 6.67° C | 49% | 1006 hPa | 0 mm | 4.02 m/s, 243° | - | - |
| 1778000838 | 7.22° C | 52% | 1005.9 hPa | 0 mm | 4.02 m/s, 233° | - | - |
| 1777999638 | 8.33° C | 46% | 1005.8 hPa | 0 mm | 4.92 m/s, 242° | - | - |
| 1777998438 | 8.33° C | 47% | 1005.7 hPa | 0 mm | 4.02 m/s, 229° | - | - |
| 1777997238 | 8.33° C | 48% | 1005.6 hPa | 0 mm | 4.02 m/s, 243° | - | - |
| 1777996038 | 9.44° C | 43% | 1005.4 hPa | 0 mm | 4.47 m/s, 242° | - | - |
| 1777994837 | 10° C | 41% | 1005.2 hPa | 0 mm | 4.92 m/s, 239° | - | - |
| 1777993638 | 10.56° C | 41% | 1005.1 hPa | 0 mm | 4.02 m/s, 240° | - | - |
| 1777992438 | 10.56° C | 39% | 1005 hPa | 0 mm | 4.92 m/s, 241° | - | - |
| 1777991237 | 10° C | 35% | 1004.9 hPa | 0 mm | 3.58 m/s, 252° | - | - |
| 1777990037 | 10.56° C | 37% | 1004.9 hPa | 0 mm | 4.02 m/s, 256° | - | - |
| 1777988837 | 10.56° C | 44% | 1004.6 hPa | 0 mm | 3.58 m/s, 233° | - | - |
| 1777987637 | 11.67° C | 41% | 1004.7 hPa | 0 mm | 3.58 m/s, 246° | - | - |
| 1777986437 | 10° C | 43% | 1004.7 hPa | 0 mm | 4.47 m/s, 278° | - | - |
| 1777985237 | 11.67° C | 42% | 1004.4 hPa | 0 mm | 2.68 m/s, 238° | - | - |
* Rain latest hour (hover to see other rain measurements)
** Current wind speed in m/s (hover to see current wind gust speed)